Time;durP1;ratioP1;P1;durP2;ratioP2;P2;SDS_P1;SDS_P2;PMS_P1;PMS_P2;Temp;Humidity;BMP_temperature;BMP_pressure;BME280_temperature;BME280_humidity;BME280_pressure;Samples;Min_cycle;Max_cycle;Signal;HPM_P1;HPM_P2
2021/12/13 00:02:00;;;;;;;85.40;14.13;;;;;;;3.91;100.00;98882.13;5157314;27;20611;-62
2021/12/13 00:04:31;;;;;;;40.97;12.10;;;;;;;4.09;100.00;98879.75;5159258;27;20605;-63
2021/12/13 00:07:03;;;;;;;36.13;10.50;;;;;;;3.98;100.00;98871.59;5156635;27;20594;-64
2021/12/13 00:09:39;;;;;;;54.37;13.30;;;;;;;4.03;100.00;98880.56;5155786;27;20612;-63
2021/12/13 00:12:09;;;;;;;49.00;13.10;;;;;;;3.90;100.00;98879.69;5147395;27;20621;-63
2021/12/13 00:14:40;;;;;;;46.83;13.50;;;;;;;3.67;100.00;98880.81;5155634;27;20607;-64
2021/12/13 00:17:12;;;;;;;48.40;12.23;;;;;;;3.76;100.00;98865.59;5147293;27;20617;-64
2021/12/13 00:19:42;;;;;;;43.27;11.87;;;;;;;3.76;100.00;98884.09;5151188;27;20631;-64
2021/12/13 00:22:15;;;;;;;59.87;12.40;;;;;;;3.89;100.00;98880.69;5134656;27;20611;-63
2021/12/13 00:24:45;;;;;;;70.73;14.53;;;;;;;4.25;100.00;98879.41;5142033;27;20616;-64
2021/12/13 00:27:16;;;;;;;71.20;14.13;;;;;;;4.36;100.00;98878.03;5145231;27;20591;-64
2021/12/13 00:29:49;;;;;;;45.83;14.03;;;;;;;4.57;100.00;98883.16;5144672;27;20635;-63
2021/12/13 00:32:20;;;;;;;58.10;12.80;;;;;;;4.78;100.00;98880.34;5141530;27;20600;-64
2021/12/13 00:34:51;;;;;;;62.30;14.30;;;;;;;4.80;100.00;98877.47;5142501;27;20621;-64
2021/12/13 00:37:21;;;;;;;40.53;11.40;;;;;;;4.73;100.00;98879.31;5144946;27;20603;-63
2021/12/13 00:39:52;;;;;;;53.43;12.40;;;;;;;4.57;100.00;98888.47;5143658;27;20634;-64
2021/12/13 00:42:24;;;;;;;60.67;12.53;;;;;;;4.23;100.00;98878.81;5141145;27;20688;-64
2021/12/13 00:44:54;;;;;;;65.70;13.57;;;;;;;4.45;100.00;98881.31;5142718;27;20608;-63
2021/12/13 00:47:24;;;;;;;39.33;12.10;;;;;;;4.47;100.00;98881.91;5144890;27;20634;-64
2021/12/13 00:49:55;;;;;;;47.33;12.10;;;;;;;4.46;100.00;98880.28;5133794;27;20638;-63
2021/12/13 00:52:23;;;;;;;68.57;12.50;;;;;;;4.28;100.00;98881.66;5144727;27;20636;-63
2021/12/13 00:54:52;;;;;;;37.83;12.80;;;;;;;4.49;100.00;98888.63;5143180;27;20621;-63
2021/12/13 00:57:43;;;;;;;40.57;13.00;;;;;;;4.53;100.00;98886.41;5140885;27;20627;-64
2021/12/13 01:00:19;;;;;;;68.57;13.23;;;;;;;4.43;100.00;98885.97;5133164;27;20640;-64
2021/12/13 01:02:49;;;;;;;72.57;15.10;;;;;;;4.35;100.00;98887.78;5141584;27;20596;-63
2021/12/13 01:05:19;;;;;;;47.90;11.60;;;;;;;4.19;100.00;98879.38;5144436;27;20606;-64
2021/12/13 01:08:11;;;;;;;47.10;13.10;;;;;;;4.28;100.00;98884.31;5143257;27;20618;-63
2021/12/13 01:11:12;;;;;;;51.93;12.53;;;;;;;4.40;100.00;98887.19;5140635;27;20645;-63
2021/12/13 01:13:55;;;;;;;41.83;11.77;;;;;;;4.42;100.00;98889.63;5136970;27;20589;-63
2021/12/13 01:16:50;;;;;;;42.17;13.00;;;;;;;4.51;100.00;98888.44;5134501;27;20600;-63
2021/12/13 01:19:30;;;;;;;42.33;11.97;;;;;;;4.69;100.00;98892.13;5129306;27;20616;-63
2021/12/13 01:22:24;;;;;;;57.50;13.03;;;;;;;4.84;100.00;98887.47;5142736;27;20695;-64
2021/12/13 01:27:42;;;;;;;74.60;13.57;;;;;;;4.74;100.00;98894.16;5133279;27;20612;-63
2021/12/13 01:30:13;;;;;;;67.70;12.67;;;;;;;4.84;100.00;98890.13;5132513;27;20604;-63
2021/12/13 01:32:43;;;;;;;26.83;9.90;;;;;;;4.87;100.00;98886.25;5139511;27;20626;-63
2021/12/13 01:35:14;;;;;;;40.00;12.80;;;;;;;4.88;100.00;98893.19;5144053;27;20607;-63
2021/12/13 01:37:41;;;;;;;40.27;11.67;;;;;;;4.93;100.00;98888.09;5143558;27;20625;-63
2021/12/13 01:40:13;;;;;;;55.30;13.33;;;;;;;5.13;100.00;98894.22;5140269;27;20686;-64
2021/12/13 01:42:41;;;;;;;48.37;12.53;;;;;;;5.34;100.00;98887.88;5140377;27;20604;-63
2021/12/13 01:45:13;;;;;;;33.50;11.63;;;;;;;5.24;100.00;98883.00;5132176;27;20621;-63
2021/12/13 01:47:43;;;;;;;40.53;11.43;;;;;;;5.44;100.00;98893.56;5140118;27;20600;-64
2021/12/13 01:50:14;;;;;;;51.93;12.50;;;;;;;5.33;100.00;98884.41;5127978;27;20615;-63
2021/12/13 01:52:42;;;;;;;46.23;13.40;;;;;;;5.24;100.00;98884.81;5143586;27;20603;-64
2021/12/13 01:55:13;;;;;;;46.53;11.80;;;;;;;5.26;100.00;98880.16;5139979;27;20600;-63
2021/12/13 01:57:47;;;;;;;54.07;14.00;;;;;;;5.36;100.00;98884.00;5139841;27;20661;-63
2021/12/13 02:00:32;;;;;;;44.90;11.83;;;;;;;5.50;100.00;98874.19;5132527;27;21426;-63
2021/12/13 02:03:00;;;;;;;47.20;12.53;;;;;;;5.68;100.00;98882.31;5142357;27;20615;-63
2021/12/13 02:05:29;;;;;;;57.50;12.70;;;;;;;5.77;100.00;98874.94;5143331;27;20627;-63
2021/12/13 02:07:58;;;;;;;46.77;11.40;;;;;;;5.89;100.00;98883.91;5140845;27;20613;-64
2021/12/13 02:10:29;;;;;;;33.20;11.53;;;;;;;6.00;100.00;98880.63;5139756;27;20624;-64
2021/12/13 02:13:00;;;;;;;29.97;10.73;;;;;;;6.08;100.00;98883.03;5141797;27;20608;-64
2021/12/13 02:18:35;;;;;;;27.43;10.67;;;;;;;6.13;100.00;98874.44;5082876;28;20632;-63
2021/12/13 02:21:07;;;;;;;33.97;9.10;;;;;;;6.16;100.00;98885.44;5071252;28;20657;-63
2021/12/13 02:23:41;;;;;;;44.17;9.93;;;;;;;6.18;100.00;98878.09;5109206;27;20718;-63
2021/12/13 02:26:10;;;;;;;49.67;9.97;;;;;;;6.19;100.00;98882.34;5131278;27;20604;-63
2021/12/13 02:28:39;;;;;;;26.57;9.43;;;;;;;6.21;100.00;98882.97;5139293;27;20600;-64
2021/12/13 02:31:11;;;;;;;31.23;9.23;;;;;;;6.24;100.00;98887.03;5130992;27;20604;-64
2021/12/13 02:33:43;;;;;;;50.47;10.53;;;;;;;6.23;100.00;98888.88;5139434;27;20622;-64
2021/12/13 02:36:15;;;;;;;59.67;9.73;;;;;;;6.15;100.00;98883.81;5131611;27;20607;-63
2021/12/13 02:38:46;;;;;;;47.93;8.20;;;;;;;6.21;100.00;98875.00;5139260;27;20608;-64
2021/12/13 02:41:14;;;;;;;37.60;7.37;;;;;;;6.17;100.00;98876.44;5142794;27;20642;-64
2021/12/13 02:43:48;;;;;;;60.47;10.10;;;;;;;6.22;100.00;98876.63;5142186;27;20599;-64
2021/12/13 02:46:16;;;;;;;39.57;9.57;;;;;;;6.16;100.00;98869.50;5139108;27;20608;-63
2021/12/13 02:48:47;;;;;;;30.60;9.20;;;;;;;6.21;100.00;98872.38;5136590;27;20588;-63
2021/12/13 02:51:20;;;;;;;38.40;8.90;;;;;;;6.24;100.00;98871.13;5139115;27;20658;-64
2021/12/13 02:53:52;;;;;;;73.90;11.33;;;;;;;6.25;100.00;98867.44;5139748;27;20607;-64
2021/12/13 02:56:22;;;;;;;30.20;8.57;;;;;;;6.27;100.00;98870.69;5142505;27;20638;-64
2021/12/13 02:58:52;;;;;;;56.57;8.87;;;;;;;6.29;100.00;98868.63;5140979;27;20634;-63
2021/12/13 03:01:25;;;;;;;31.70;7.30;;;;;;;6.29;100.00;98879.25;5138884;27;20596;-63
2021/12/13 03:03:58;;;;;;;42.13;8.70;;;;;;;6.30;100.00;98880.88;5140303;27;20622;-64
2021/12/13 03:06:28;;;;;;;43.97;9.03;;;;;;;6.30;100.00;98880.88;5142441;27;20603;-63
2021/12/13 03:09:00;;;;;;;38.43;8.27;;;;;;;6.19;100.00;98886.88;5139976;27;20612;-64
2021/12/13 03:11:34;;;;;;;42.70;8.07;;;;;;;5.94;100.00;98886.75;5138569;28;20651;-64
2021/12/13 03:14:07;;;;;;;27.87;7.57;;;;;;;5.97;100.00;98887.13;5141581;28;20648;-64
2021/12/13 03:16:40;;;;;;;28.43;9.50;;;;;;;6.09;100.00;98889.97;5142185;28;20595;-64
2021/12/13 03:19:10;;;;;;;35.60;9.00;;;;;;;6.17;100.00;98884.41;5125933;28;20622;-64
2021/12/13 03:22:14;;;;;;;50.80;8.87;;;;;;;6.24;100.00;98887.03;5138407;28;20618;-63
2021/12/13 03:25:07;;;;;;;82.77;11.70;;;;;;;6.33;100.00;98893.72;5108655;28;20625;-63
2021/12/13 03:27:50;;;;;;;54.87;11.73;;;;;;;6.05;100.00;98887.94;5142073;28;20629;-63
2021/12/13 03:30:23;;;;;;;41.07;11.77;;;;;;;5.80;100.00;98888.59;5131757;28;20636;-63
2021/12/13 03:32:55;;;;;;;54.70;11.83;;;;;;;5.68;100.00;98886.78;5139683;28;21123;-64
2021/12/13 03:35:28;;;;;;;35.97;11.97;;;;;;;5.60;100.00;98884.38;5142182;28;20611;-64
2021/12/13 03:37:59;;;;;;;73.77;13.00;;;;;;;5.65;100.00;98888.03;5139978;28;20600;-64
2021/12/13 03:40:31;;;;;;;47.23;12.03;;;;;;;5.45;100.00;98887.22;5138520;28;20612;-64
2021/12/13 03:43:03;;;;;;;52.20;11.60;;;;;;;5.57;100.00;98892.75;5140794;28;20590;-63
2021/12/13 03:45:33;;;;;;;43.30;12.67;;;;;;;5.40;100.00;98895.00;5142119;28;20652;-64
2021/12/13 03:48:03;;;;;;;48.20;11.50;;;;;;;5.43;100.00;98890.09;5139038;28;20611;-63
2021/12/13 03:50:36;;;;;;;49.53;14.80;;;;;;;5.38;100.00;98894.41;5134589;28;20635;-63
2021/12/13 03:53:16;;;;;;;44.87;11.93;;;;;;;5.48;100.00;98892.13;5138482;28;20601;-64
2021/12/13 03:55:48;;;;;;;90.17;15.37;;;;;;;5.47;100.00;98892.34;5138985;28;20600;-63
2021/12/13 03:58:23;;;;;;;40.63;11.30;;;;;;;5.63;100.00;98892.69;5145574;27;20612;-63
2021/12/13 04:00:58;;;;;;;41.07;12.97;;;;;;;5.74;100.00;98893.91;5144159;27;20637;-64
2021/12/13 04:03:28;;;;;;;51.93;11.87;;;;;;;5.91;100.00;98901.22;5142094;27;20600;-64
2021/12/13 04:05:56;;;;;;;60.73;13.00;;;;;;;5.92;100.00;98896.75;5143855;27;20603;-63
2021/12/13 04:08:23;;;;;;;45.23;13.07;;;;;;;5.90;100.00;98896.16;5145650;27;20649;-64
2021/12/13 04:10:54;;;;;;;45.43;11.80;;;;;;;5.75;100.00;98903.50;5143880;27;20631;-64
2021/12/13 04:13:25;;;;;;;48.10;12.77;;;;;;;5.80;100.00;98895.72;5141883;27;20600;-63
2021/12/13 04:16:02;;;;;;;60.87;13.43;;;;;;;5.79;100.00;98896.75;5143234;27;20601;-64
2021/12/13 04:19:06;;;;;;;43.60;12.57;;;;;;;5.79;100.00;98902.03;5144196;27;20614;-63
2021/12/13 04:21:36;;;;;;;48.27;12.80;;;;;;;5.92;100.00;98910.81;5136340;27;20628;-63
2021/12/13 04:24:13;;;;;;;49.70;11.83;;;;;;;5.92;100.00;98912.66;5144956;27;20607;-63
2021/12/13 04:26:44;;;;;;;40.27;12.47;;;;;;;5.98;100.00;98919.75;5145106;27;20607;-63
2021/12/13 04:29:18;;;;;;;45.13;11.80;;;;;;;5.88;100.00;98920.19;5134045;27;21111;-63
2021/12/13 04:31:46;;;;;;;67.30;13.80;;;;;;;5.97;100.00;98929.56;5141973;27;20639;-63
2021/12/13 04:34:13;;;;;;;51.70;12.17;;;;;;;6.08;100.00;98936.06;5144933;27;20603;-64
2021/12/13 04:36:43;;;;;;;85.70;12.53;;;;;;;6.16;100.00;98938.47;5144697;27;20606;-64
2021/12/13 04:39:19;;;;;;;41.03;10.13;;;;;;;6.22;100.00;98937.63;5115337;28;20618;-63
2021/12/13 04:41:50;;;;;;;52.63;12.20;;;;;;;6.25;100.00;98934.56;5141903;27;20626;-63
2021/12/13 04:44:22;;;;;;;51.00;11.63;;;;;;;6.27;100.00;98940.50;5144686;27;20604;-63
2021/12/13 04:46:52;;;;;;;57.70;12.37;;;;;;;6.29;100.00;98933.13;5143303;27;20599;-63
2021/12/13 04:49:22;;;;;;;57.53;11.27;;;;;;;6.31;100.00;98936.38;5136615;27;21508;-63
2021/12/13 04:51:55;;;;;;;65.60;10.90;;;;;;;6.33;100.00;98934.34;5142025;27;20644;-63
2021/12/13 04:54:24;;;;;;;66.57;10.47;;;;;;;6.35;100.00;98926.16;5144722;27;20595;-63
2021/12/13 04:56:56;;;;;;;36.30;8.60;;;;;;;6.35;100.00;98926.97;5142648;27;20632;-63
2021/12/13 04:59:23;;;;;;;31.07;7.83;;;;;;;6.36;100.00;98923.31;5140876;27;20608;-63
2021/12/13 05:01:54;;;;;;;48.07;9.37;;;;;;;6.32;100.00;98926.56;5123959;27;20634;-63
2021/12/13 05:04:22;;;;;;;71.10;10.93;;;;;;;6.26;100.00;98930.88;5144322;27;20651;-63
2021/12/13 05:06:51;;;;;;;36.07;8.17;;;;;;;6.29;100.00;98927.81;5142939;27;20617;-64
2021/12/13 05:09:21;;;;;;;42.70;9.30;;;;;;;6.35;100.00;98926.16;5140561;27;20638;-64
2021/12/13 05:11:52;;;;;;;56.80;9.63;;;;;;;6.36;100.00;98933.91;5141090;27;20651;-63
2021/12/13 05:14:32;;;;;;;69.40;9.60;;;;;;;6.36;100.00;98931.25;5143906;27;20595;-63
2021/12/13 05:17:06;;;;;;;63.90;9.93;;;;;;;6.39;100.00;98937.97;5141136;27;20642;-64
2021/12/13 05:19:40;;;;;;;38.90;8.60;;;;;;;6.35;100.00;98932.28;5135790;27;20710;-63
2021/12/13 05:22:09;;;;;;;44.87;9.50;;;;;;;6.35;100.00;98936.75;5131940;27;20617;-65
2021/12/13 05:24:44;;;;;;;90.40;11.07;;;;;;;6.34;100.00;98935.97;5140355;27;20665;-63
2021/12/13 05:27:12;;;;;;;66.53;10.03;;;;;;;6.36;100.00;98933.91;5132220;27;20592;-63
2021/12/13 05:29:43;;;;;;;69.80;9.80;;;;;;;6.34;100.00;98943.13;5140325;27;20624;-64
2021/12/13 05:32:14;;;;;;;64.47;9.77;;;;;;;6.39;100.00;98944.09;5132163;27;20652;-63
2021/12/13 05:34:45;;;;;;;57.53;10.23;;;;;;;6.37;100.00;98946.16;5140133;27;20665;-64
2021/12/13 05:37:12;;;;;;;32.53;8.20;;;;;;;6.37;100.00;98943.50;5143751;27;20611;-64
2021/12/13 05:39:54;;;;;;;81.53;10.50;;;;;;;6.39;100.00;98952.06;5143431;27;20600;-63
2021/12/13 05:42:20;;;;;;;59.33;9.73;;;;;;;6.43;100.00;98952.47;5133548;27;20681;-63
2021/12/13 05:44:49;;;;;;;73.27;10.80;;;;;;;6.41;100.00;98946.53;5140548;27;20600;-64
2021/12/13 05:47:22;;;;;;;29.83;7.90;;;;;;;6.40;100.00;98952.88;5125294;27;20611;-64
2021/12/13 05:49:50;;;;;;;42.87;9.13;;;;;;;6.42;100.00;98953.47;5132307;27;20593;-65
2021/12/13 05:52:19;;;;;;;77.83;10.13;;;;;;;6.40;100.00;98964.31;5143190;27;20676;-63
2021/12/13 05:54:50;;;;;;;56.37;10.20;;;;;;;6.40;100.00;98961.66;5142235;27;20620;-63
2021/12/13 05:57:20;;;;;;;52.90;9.27;;;;;;;6.41;100.00;98957.97;5139570;27;20636;-63
2021/12/13 05:59:59;;;;;;;53.17;9.73;;;;;;;6.43;100.00;98968.38;5140351;27;20669;-63
2021/12/13 06:02:41;;;;;;;38.13;9.73;;;;;;;6.42;100.00;98967.56;5143102;27;20651;-64
2021/12/13 06:05:18;;;;;;;48.50;9.63;;;;;;;6.41;100.00;98965.94;5131522;27;20642;-63
2021/12/13 06:07:55;;;;;;;87.60;11.47;;;;;;;6.42;100.00;98975.53;5139981;27;20608;-63
2021/12/13 06:10:22;;;;;;;83.20;10.83;;;;;;;6.39;100.00;98983.91;5142937;27;20633;-63
2021/12/13 06:12:54;;;;;;;45.13;9.67;;;;;;;6.40;100.00;98982.06;5141650;27;20647;-63
2021/12/13 06:15:29;;;;;;;76.03;11.47;;;;;;;6.43;100.00;98985.13;5139284;27;20596;-63
2021/12/13 06:18:06;;;;;;;37.13;8.23;;;;;;;6.44;100.00;98989.38;5140967;27;20625;-64
2021/12/13 06:20:38;;;;;;;40.80;7.83;;;;;;;6.44;100.00;98989.38;5137953;27;20607;-63
2021/12/13 06:23:08;;;;;;;64.07;10.53;;;;;;;6.45;100.00;98990.22;5139149;27;20595;-63
2021/12/13 06:25:35;;;;;;;49.50;9.43;;;;;;;6.42;100.00;98991.44;5139031;27;20638;-64
2021/12/13 06:28:04;;;;;;;68.60;10.47;;;;;;;6.23;100.00;98989.66;5142035;27;20617;-63
2021/12/13 06:30:38;;;;;;;67.57;10.80;;;;;;;5.98;100.00;98994.81;5142605;27;20591;-63
2021/12/13 06:33:07;;;;;;;67.20;10.23;;;;;;;6.09;100.00;98995.22;5138796;27;20628;-64
2021/12/13 06:35:45;;;;;;;102.87;11.30;;;;;;;6.25;100.00;98992.13;5138876;27;20612;-64
2021/12/13 06:38:45;;;;;;;59.80;11.30;;;;;;;6.25;100.00;99000.88;5131221;27;20612;-64
2021/12/13 06:41:20;;;;;;;63.20;9.50;;;;;;;6.14;100.00;99003.38;5131092;27;20650;-64
2021/12/13 06:43:51;;;;;;;65.13;9.80;;;;;;;6.24;100.00;99006.41;5121056;27;20616;-64
2021/12/13 06:46:39;;;;;;;44.87;10.23;;;;;;;6.40;100.00;98998.81;5142139;27;20710;-64
2021/12/13 06:49:15;;;;;;;59.10;10.53;;;;;;;6.41;100.00;99013.69;5133956;27;20619;-64
2021/12/13 06:51:48;;;;;;;89.53;13.57;;;;;;;6.39;100.00;99004.31;5138615;27;20655;-64
2021/12/13 06:54:17;;;;;;;75.40;12.97;;;;;;;6.39;100.00;99012.28;5142169;27;20604;-63
2021/12/13 06:56:51;;;;;;;56.67;9.67;;;;;;;6.37;100.00;99009.84;5141445;27;20595;-65
2021/12/13 06:59:19;;;;;;;39.63;9.10;;;;;;;6.33;100.00;99008.63;5138652;27;20614;-64
2021/12/13 07:02:07;;;;;;;73.70;10.23;;;;;;;6.34;100.00;99012.09;5138993;28;20596;-64
2021/12/13 07:04:54;;;;;;;90.30;12.07;;;;;;;6.40;100.00;99014.72;5142022;27;20667;-64
2021/12/13 07:07:24;;;;;;;62.20;11.07;;;;;;;6.33;100.00;99019.25;5131689;27;20961;-63
2021/12/13 07:09:54;;;;;;;90.77;13.60;;;;;;;6.46;100.00;99024.50;5139425;28;20609;-63
2021/12/13 07:12:22;;;;;;;30.60;9.00;;;;;;;6.55;100.00;99026.91;5141886;28;20661;-63
2021/12/13 07:14:50;;;;;;;75.47;12.97;;;;;;;6.29;100.00;99028.63;5140608;28;20664;-63
2021/12/13 07:17:23;;;;;;;65.40;13.93;;;;;;;6.00;100.00;99026.47;5138128;28;20600;-62
2021/12/13 07:19:51;;;;;;;58.33;13.07;;;;;;;5.87;100.00;99032.59;5134650;28;21223;-62
2021/12/13 07:22:21;;;;;;;87.53;13.87;;;;;;;5.97;100.00;99032.97;5141645;28;20592;-63
2021/12/13 07:24:51;;;;;;;69.60;11.80;;;;;;;6.09;100.00;99033.16;5140667;28;20617;-63
2021/12/13 07:27:22;;;;;;;44.63;11.87;;;;;;;6.21;100.00;99030.69;5138133;28;20612;-64
2021/12/13 07:29:52;;;;;;;57.93;11.80;;;;;;;6.37;100.00;99036.38;5139192;28;20641;-63
2021/12/13 07:32:24;;;;;;;46.87;10.60;;;;;;;6.25;100.00;99034.56;5144875;27;20647;-63
2021/12/13 07:35:03;;;;;;;57.97;13.17;;;;;;;6.19;100.00;99038.84;5144254;27;20702;-63
2021/12/13 07:37:40;;;;;;;63.70;12.00;;;;;;;5.96;100.00;99041.13;5141970;27;21463;-64
2021/12/13 07:40:25;;;;;;;92.43;13.40;;;;;;;6.10;100.00;99040.09;5133696;27;20626;-62
2021/12/13 07:42:57;;;;;;;69.97;11.97;;;;;;;6.23;100.00;99044.56;5143377;27;20604;-63
2021/12/13 07:45:28;;;;;;;58.80;13.33;;;;;;;6.32;100.00;99043.31;5145501;27;20629;-63
2021/12/13 07:47:58;;;;;;;73.13;11.93;;;;;;;6.36;100.00;99055.13;5143239;27;20609;-64
2021/12/13 07:50:25;;;;;;;69.80;11.37;;;;;;;6.41;100.00;99048.19;5137213;27;20596;-63
2021/12/13 07:52:59;;;;;;;63.00;10.87;;;;;;;6.42;100.00;99049.00;5143813;27;20638;-64
2021/12/13 07:55:28;;;;;;;78.40;10.73;;;;;;;6.39;100.00;99050.25;5142085;27;20596;-63
2021/12/13 07:57:59;;;;;;;60.90;10.43;;;;;;;6.43;100.00;99048.81;5143405;27;20620;-63
2021/12/13 08:00:33;;;;;;;33.50;9.93;;;;;;;6.69;100.00;99047.88;5145313;27;20617;-63
2021/12/13 08:03:05;;;;;;;73.93;14.77;;;;;;;6.60;100.00;99048.31;5142377;27;20599;-64
2021/12/13 08:05:37;;;;;;;57.30;12.47;;;;;;;6.73;100.00;99045.63;5141912;27;20629;-64
2021/12/13 08:08:06;;;;;;;57.83;11.87;;;;;;;6.67;100.00;99041.16;5144928;27;20641;-64
2021/12/13 08:10:36;;;;;;;52.47;12.83;;;;;;;6.56;100.00;99041.81;5145120;27;20618;-64
2021/12/13 08:13:06;;;;;;;69.23;13.47;;;;;;;6.64;100.00;99041.59;5141740;27;20652;-64
2021/12/13 08:15:39;;;;;;;42.60;11.57;;;;;;;6.53;100.00;99047.56;5141608;27;20719;-64
2021/12/13 08:18:10;;;;;;;78.83;14.07;;;;;;;6.66;100.00;99050.97;5144832;27;20584;-64
2021/12/13 08:20:43;;;;;;;109.20;14.20;;;;;;;6.46;100.00;99035.13;5140361;27;20615;-64
2021/12/13 08:23:16;;;;;;;73.77;11.43;;;;;;;6.44;100.00;99044.28;5133339;27;20596;-63
2021/12/13 08:25:44;;;;;;;85.83;12.57;;;;;;;6.60;100.00;99048.31;5141566;27;20588;-63
2021/12/13 08:28:13;;;;;;;55.77;10.30;;;;;;;6.53;100.00;99052.88;5144907;27;20599;-64
2021/12/13 08:30:46;;;;;;;114.73;13.00;;;;;;;6.56;100.00;99044.47;5144792;27;20695;-63
2021/12/13 08:33:17;;;;;;;80.00;12.07;;;;;;;6.55;100.00;99058.75;5133716;27;20644;-64
2021/12/13 08:35:50;;;;;;;79.90;14.10;;;;;;;6.69;100.00;99060.34;5141464;27;20600;-63
2021/12/13 08:38:32;;;;;;;43.77;11.37;;;;;;;6.73;100.00;99074.84;5144676;27;20636;-63
2021/12/13 08:41:02;;;;;;;55.13;13.17;;;;;;;6.56;100.00;99073.69;5141769;27;20595;-64
2021/12/13 08:43:38;;;;;;;73.30;14.60;;;;;;;6.50;100.00;99068.16;5140296;27;21166;-64
2021/12/13 08:46:06;;;;;;;50.03;13.17;;;;;;;6.43;100.00;99078.00;5140932;27;20614;-63
2021/12/13 08:48:43;;;;;;;63.50;14.33;;;;;;;6.38;100.00;99082.28;5130051;28;20616;-63
2021/12/13 08:51:10;;;;;;;72.10;13.90;;;;;;;6.46;100.00;99082.88;5132993;27;20994;-63
2021/12/13 08:53:39;;;;;;;95.83;12.97;;;;;;;6.48;100.00;99087.97;5140513;27;20652;-63
2021/12/13 08:56:10;;;;;;;102.17;13.37;;;;;;;6.49;100.00;99097.56;5132264;27;20604;-63
2021/12/13 08:58:51;;;;;;;92.57;11.60;;;;;;;6.61;100.00;99100.41;5140394;27;20615;-63
2021/12/13 09:01:18;;;;;;;70.80;10.03;;;;;;;6.67;100.00;99105.69;5133815;27;20661;-63
2021/12/13 09:03:48;;;;;;;99.97;11.50;;;;;;;6.68;100.00;99093.25;5140897;27;20608;-63
2021/12/13 09:06:28;;;;;;;78.03;12.10;;;;;;;6.71;100.00;99100.78;5144032;27;20636;-64
2021/12/13 09:08:59;;;;;;;83.07;11.60;;;;;;;6.71;100.00;99100.78;5141488;27;20611;-63
2021/12/13 09:11:31;;;;;;;68.77;9.73;;;;;;;6.72;100.00;99097.09;5140387;27;20629;-64
2021/12/13 09:14:10;;;;;;;55.17;9.57;;;;;;;6.64;100.00;99102.63;5142409;27;20621;-63
2021/12/13 09:16:47;;;;;;;69.23;10.17;;;;;;;6.71;100.00;99100.78;5143706;27;20614;-63
2021/12/13 09:19:22;;;;;;;81.90;12.30;;;;;;;6.73;100.00;99104.03;5127866;27;20607;-63
2021/12/13 09:22:00;;;;;;;84.83;10.70;;;;;;;6.76;100.00;99106.28;5141001;27;20641;-64
2021/12/13 09:24:35;;;;;;;52.93;9.40;;;;;;;6.77;100.00;99098.13;5143835;27;20641;-63
2021/12/13 09:27:17;;;;;;;64.40;12.20;;;;;;;6.94;100.00;99096.59;5140468;27;20604;-63
2021/12/13 09:29:54;;;;;;;111.70;13.50;;;;;;;6.86;100.00;99098.69;5140600;27;20633;-64
2021/12/13 09:32:24;;;;;;;75.17;12.57;;;;;;;6.80;100.00;99099.53;5143535;27;20700;-64
2021/12/13 09:34:55;;;;;;;78.53;11.73;;;;;;;6.80;100.00;99102.19;5141878;27;20682;-63
2021/12/13 09:37:22;;;;;;;71.73;12.60;;;;;;;6.70;100.00;99091.19;5139938;27;20605;-65
2021/12/13 09:40:00;;;;;;;65.87;11.60;;;;;;;6.62;100.00;99099.38;5140730;27;20626;-64
2021/12/13 09:42:27;;;;;;;62.60;12.20;;;;;;;6.65;100.00;99102.44;5143420;27;20671;-64
2021/12/13 09:45:01;;;;;;;79.07;12.20;;;;;;;6.51;100.00;99101.66;5141306;27;20611;-63
2021/12/13 09:47:34;;;;;;;61.90;10.80;;;;;;;6.60;100.00;99098.75;5139672;27;20613;-64
2021/12/13 09:50:08;;;;;;;117.73;13.23;;;;;;;6.56;100.00;99100.22;5137318;27;20711;-64
2021/12/13 09:52:39;;;;;;;90.10;12.03;;;;;;;6.66;100.00;99104.06;5143125;27;20809;-64
2021/12/13 09:55:12;;;;;;;51.37;10.27;;;;;;;6.67;100.00;99104.88;5138756;27;20601;-64
2021/12/13 09:57:42;;;;;;;82.30;13.07;;;;;;;6.74;100.00;99100.38;5139278;27;20612;-64
2021/12/13 10:00:15;;;;;;;60.37;18.07;;;;;;;6.87;100.00;99092.34;5131361;27;20681;-63
2021/12/13 10:02:48;;;;;;;53.57;11.17;;;;;;;6.85;100.00;99091.72;5139657;27;20672;-63
2021/12/13 10:05:20;;;;;;;52.47;11.90;;;;;;;6.89;100.00;99098.25;5143271;27;20999;-64
2021/12/13 10:07:52;;;;;;;95.07;11.80;;;;;;;6.96;100.00;99093.75;5141849;27;20583;-63
2021/12/13 10:10:21;;;;;;;57.37;10.03;;;;;;;6.93;100.00;99094.19;5139332;27;20646;-64
2021/12/13 10:12:51;;;;;;;61.83;10.30;;;;;;;6.92;100.00;99095.19;5140139;27;20632;-64
2021/12/13 10:15:24;;;;;;;35.67;9.13;;;;;;;6.73;100.00;99099.53;5142864;27;20636;-63
2021/12/13 10:17:54;;;;;;;32.53;8.43;;;;;;;6.73;100.00;99094.22;5141501;27;20621;-64
2021/12/13 10:20:27;;;;;;;35.00;8.03;;;;;;;6.70;100.00;99099.16;5133957;27;20608;-64
2021/12/13 10:22:55;;;;;;;52.63;8.33;;;;;;;6.67;100.00;99096.91;5140670;27;20615;-64
2021/12/13 10:25:25;;;;;;;73.33;9.80;;;;;;;6.83;100.00;99086.66;5139203;27;20588;-63
2021/12/13 10:27:52;;;;;;;39.60;9.50;;;;;;;6.91;100.00;99090.91;5140344;27;20630;-63
2021/12/13 10:30:22;;;;;;;49.57;8.90;;;;;;;6.86;100.00;99085.41;5124459;27;20637;-65
2021/12/13 10:32:49;;;;;;;69.63;9.77;;;;;;;6.77;100.00;99090.16;5141392;27;20635;-64
2021/12/13 10:35:21;;;;;;;45.97;9.03;;;;;;;6.81;100.00;99082.56;5138959;27;20604;-64
2021/12/13 10:37:52;;;;;;;97.57;11.40;;;;;;;6.91;100.00;99085.59;5139720;27;20608;-64
2021/12/13 10:40:23;;;;;;;27.27;7.60;;;;;;;7.01;100.00;99083.31;5142706;27;20596;-64
2021/12/13 10:42:55;;;;;;;53.97;10.57;;;;;;;7.08;100.00;99089.41;5141082;27;20600;-64
2021/12/13 10:45:26;;;;;;;26.87;6.93;;;;;;;7.06;100.00;99073.66;5120702;28;20596;-64
2021/12/13 10:47:56;;;;;;;55.97;10.90;;;;;;;7.06;100.00;99075.50;5140177;27;20639;-63
2021/12/13 10:50:26;;;;;;;52.10;9.20;;;;;;;7.09;100.00;99075.06;5137541;27;20621;-64
2021/12/13 10:52:54;;;;;;;46.13;10.00;;;;;;;7.06;100.00;99072.84;5140659;27;20599;-63
2021/12/13 10:55:25;;;;;;;35.10;9.50;;;;;;;7.14;100.00;99069.97;5138796;27;20585;-64
2021/12/13 10:57:52;;;;;;;78.37;10.57;;;;;;;7.04;100.00;99066.94;5139780;27;20634;-63
2021/12/13 11:00:22;;;;;;;39.17;8.17;;;;;;;7.06;100.00;99062.22;5142251;27;20619;-64
2021/12/13 11:02:54;;;;;;;63.73;9.53;;;;;;;7.03;100.00;99050.19;5140972;27;20661;-63
2021/12/13 11:05:22;;;;;;;72.67;10.70;;;;;;;7.08;100.00;99057.53;5138599;27;20612;-64
2021/12/13 11:07:49;;;;;;;74.60;9.83;;;;;;;7.04;100.00;99062.44;5139497;27;20601;-63
2021/12/13 11:10:23;;;;;;;46.47;10.10;;;;;;;7.17;100.00;99058.09;5123817;28;20623;-64
2021/12/13 11:12:54;;;;;;;122.83;13.43;;;;;;;7.13;100.00;99052.38;5140371;28;20656;-64
2021/12/13 11:15:25;;;;;;;48.70;8.57;;;;;;;7.21;100.00;99054.00;5138376;28;20630;-65
2021/12/13 11:17:54;;;;;;;75.73;9.13;;;;;;;7.24;100.00;99051.69;5139480;28;20631;-63
2021/12/13 11:20:25;;;;;;;41.57;8.93;;;;;;;7.21;100.00;99054.78;5137232;28;20588;-64
2021/12/13 11:22:52;;;;;;;65.07;10.47;;;;;;;7.11;100.00;99048.31;5140179;28;20627;-63
2021/12/13 11:25:25;;;;;;;36.33;9.00;;;;;;;7.19;100.00;99046.22;5138459;28;21170;-64
2021/12/13 11:27:52;;;;;;;64.73;10.67;;;;;;;7.27;100.00;99053.91;5139745;28;20600;-64
2021/12/13 11:30:27;;;;;;;62.33;9.37;;;;;;;7.23;100.00;99052.75;5141755;28;20599;-64
2021/12/13 11:33:42;;;;;;;42.60;8.00;;;;;;;7.24;100.00;99043.72;5140049;28;20632;-64
2021/12/13 11:36:39;;;;;;;49.67;8.00;;;;;;;7.15;100.00;99049.53;5130032;28;20596;-63
2021/12/13 11:39:34;;;;;;;20.30;7.97;;;;;;;7.17;100.00;99053.59;5123529;28;20603;-63
2021/12/13 11:42:22;;;;;;;42.93;8.87;;;;;;;7.30;100.00;99040.25;5139069;28;20591;-64
2021/12/13 11:45:20;;;;;;;41.97;8.77;;;;;;;7.32;100.00;99040.00;5139036;28;20612;-65
2021/12/13 11:48:12;;;;;;;99.53;12.30;;;;;;;7.20;100.00;99042.53;5140555;28;20595;-64
2021/12/13 11:51:15;;;;;;;80.90;9.70;;;;;;;7.34;100.00;99045.91;5096656;28;20604;-65
2021/12/13 11:54:20;;;;;;;80.17;10.33;;;;;;;7.28;100.00;99044.13;5134472;28;20611;-63